sensor_id;sensor_type;location;lat;lon;timestamp;temperature;humidity
19060;DHT22;9663;48.996;8.334;2023-02-20T00:01:22;11.10;67.50
19060;DHT22;9663;48.996;8.334;2023-02-20T00:03:49;11.00;67.70
19060;DHT22;9663;48.996;8.334;2023-02-20T00:06:14;10.90;67.60
19060;DHT22;9663;48.996;8.334;2023-02-20T00:08:40;11.60;68.00
19060;DHT22;9663;48.996;8.334;2023-02-20T00:11:06;11.60;68.20
19060;DHT22;9663;48.996;8.334;2023-02-20T00:13:32;11.20;67.80
19060;DHT22;9663;48.996;8.334;2023-02-20T00:15:58;10.90;67.60
19060;DHT22;9663;48.996;8.334;2023-02-20T00:18:24;11.00;68.80
19060;DHT22;9663;48.996;8.334;2023-02-20T00:20:49;13.00;69.20
19060;DHT22;9663;48.996;8.334;2023-02-20T00:23:15;11.00;68.00
19060;DHT22;9663;48.996;8.334;2023-02-20T00:25:41;10.90;68.00
19060;DHT22;9663;48.996;8.334;2023-02-20T00:28:06;10.90;68.10
19060;DHT22;9663;48.996;8.334;2023-02-20T00:30:32;10.70;68.00
19060;DHT22;9663;48.996;8.334;2023-02-20T00:32:58;11.20;68.30
19060;DHT22;9663;48.996;8.334;2023-02-20T00:35:25;10.70;68.10
19060;DHT22;9663;48.996;8.334;2023-02-20T00:37:52;11.00;68.20
19060;DHT22;9663;48.996;8.334;2023-02-20T00:40:20;10.30;67.80
19060;DHT22;9663;48.996;8.334;2023-02-20T00:42:48;11.00;68.10
19060;DHT22;9663;48.996;8.334;2023-02-20T00:45:15;10.90;68.20
19060;DHT22;9663;48.996;8.334;2023-02-20T00:47:42;10.80;68.20
19060;DHT22;9663;48.996;8.334;2023-02-20T00:50:10;10.70;68.30
19060;DHT22;9663;48.996;8.334;2023-02-20T00:52:38;10.90;68.50
19060;DHT22;9663;48.996;8.334;2023-02-20T00:55:04;10.30;68.20
19060;DHT22;9663;48.996;8.334;2023-02-20T00:57:30;10.50;68.10
19060;DHT22;9663;48.996;8.334;2023-02-20T00:59:56;10.20;68.10
19060;DHT22;9663;48.996;8.334;2023-02-20T01:02:22;11.50;68.90
19060;DHT22;9663;48.996;8.334;2023-02-20T01:04:48;8.70;67.20
19060;DHT22;9663;48.996;8.334;2023-02-20T01:07:14;10.60;68.50
19060;DHT22;9663;48.996;8.334;2023-02-20T01:09:40;10.70;68.50
19060;DHT22;9663;48.996;8.334;2023-02-20T01:12:05;10.30;68.40
19060;DHT22;9663;48.996;8.334;2023-02-20T01:14:31;10.60;68.50
19060;DHT22;9663;48.996;8.334;2023-02-20T01:16:57;10.40;68.40
19060;DHT22;9663;48.996;8.334;2023-02-20T01:19:23;10.20;68.50
19060;DHT22;9663;48.996;8.334;2023-02-20T01:21:50;10.30;68.60
19060;DHT22;9663;48.996;8.334;2023-02-20T01:24:16;10.50;68.80
19060;DHT22;9663;48.996;8.334;2023-02-20T01:26:44;10.20;68.50
19060;DHT22;9663;48.996;8.334;2023-02-20T01:29:12;11.40;69.40
19060;DHT22;9663;48.996;8.334;2023-02-20T01:31:38;10.40;68.90
19060;DHT22;9663;48.996;8.334;2023-02-20T01:34:04;10.40;69.00
19060;DHT22;9663;48.996;8.334;2023-02-20T01:36:30;10.30;68.90
19060;DHT22;9663;48.996;8.334;2023-02-20T01:38:56;10.20;68.90
19060;DHT22;9663;48.996;8.334;2023-02-20T01:41:23;10.10;68.70
19060;DHT22;9663;48.996;8.334;2023-02-20T01:43:50;9.90;68.60
19060;DHT22;9663;48.996;8.334;2023-02-20T01:52:17;10.00;67.30
19060;DHT22;9663;48.996;8.334;2023-02-20T01:54:46;10.10;68.60
19060;DHT22;9663;48.996;8.334;2023-02-20T01:57:19;10.40;68.90
19060;DHT22;9663;48.996;8.334;2023-02-20T01:59:50;9.80;68.40
19060;DHT22;9663;48.996;8.334;2023-02-20T02:02:19;9.70;69.20
19060;DHT22;9663;48.996;8.334;2023-02-20T02:04:47;10.20;69.80
19060;DHT22;9663;48.996;8.334;2023-02-20T02:07:13;9.50;69.30
19060;DHT22;9663;48.996;8.334;2023-02-20T02:09:53;9.90;69.70
19060;DHT22;9663;48.996;8.334;2023-02-20T02:12:23;9.80;69.90
19060;DHT22;9663;48.996;8.334;2023-02-20T02:14:49;11.60;70.90
19060;DHT22;9663;48.996;8.334;2023-02-20T02:17:27;9.80;69.80
19060;DHT22;9663;48.996;8.334;2023-02-20T02:22:59;9.90;68.80
19060;DHT22;9663;48.996;8.334;2023-02-20T02:37:20;9.60;68.50
19060;DHT22;9663;48.996;8.334;2023-02-20T02:43:02;9.60;68.50
19060;DHT22;9663;48.996;8.334;2023-02-20T02:45:37;9.50;68.70
19060;DHT22;9663;48.996;8.334;2023-02-20T02:48:36;9.70;69.00
19060;DHT22;9663;48.996;8.334;2023-02-20T02:51:15;9.90;70.60
19060;DHT22;9663;48.996;8.334;2023-02-20T02:54:03;9.80;70.30
19060;DHT22;9663;48.996;8.334;2023-02-20T02:56:34;9.30;70.20
19060;DHT22;9663;48.996;8.334;2023-02-20T02:59:01;9.60;70.30
19060;DHT22;9663;48.996;8.334;2023-02-20T03:01:30;9.80;70.50
19060;DHT22;9663;48.996;8.334;2023-02-20T03:04:02;10.10;70.20
19060;DHT22;9663;48.996;8.334;2023-02-20T03:06:34;9.50;69.80
19060;DHT22;9663;48.996;8.334;2023-02-20T03:09:25;9.80;69.90
19060;DHT22;9663;48.996;8.334;2023-02-20T03:11:55;9.40;68.20
19060;DHT22;9663;48.996;8.334;2023-02-20T03:14:33;9.50;69.60
19060;DHT22;9663;48.996;8.334;2023-02-20T03:17:29;9.50;69.50
19060;DHT22;9663;48.996;8.334;2023-02-20T03:20:01;9.60;69.80
19060;DHT22;9663;48.996;8.334;2023-02-20T03:22:46;9.70;69.70
19060;DHT22;9663;48.996;8.334;2023-02-20T03:28:10;9.60;68.30
19060;DHT22;9663;48.996;8.334;2023-02-20T03:33:36;9.40;68.40
19060;DHT22;9663;48.996;8.334;2023-02-20T03:36:30;9.70;69.90
19060;DHT22;9663;48.996;8.334;2023-02-20T03:39:22;9.40;69.90
19060;DHT22;9663;48.996;8.334;2023-02-20T03:42:14;9.20;69.70
19060;DHT22;9663;48.996;8.334;2023-02-20T03:45:03;9.40;70.20
19060;DHT22;9663;48.996;8.334;2023-02-20T03:47:31;9.40;70.10
19060;DHT22;9663;48.996;8.334;2023-02-20T03:50:00;10.60;70.90
19060;DHT22;9663;48.996;8.334;2023-02-20T03:52:32;9.50;70.30
19060;DHT22;9663;48.996;8.334;2023-02-20T03:54:57;10.10;70.60
19060;DHT22;9663;48.996;8.334;2023-02-20T03:57:27;9.30;70.20
19060;DHT22;9663;48.996;8.334;2023-02-20T04:00:07;9.00;70.00
19060;DHT22;9663;48.996;8.334;2023-02-20T04:02:42;8.50;68.50
19060;DHT22;9663;48.996;8.334;2023-02-20T04:05:17;10.10;70.90
19060;DHT22;9663;48.996;8.334;2023-02-20T04:10:29;8.90;68.80
19060;DHT22;9663;48.996;8.334;2023-02-20T04:13:00;11.50;71.70
19060;DHT22;9663;48.996;8.334;2023-02-20T04:15:28;9.20;70.50
19060;DHT22;9663;48.996;8.334;2023-02-20T04:18:09;8.90;70.10
19060;DHT22;9663;48.996;8.334;2023-02-20T04:20:36;9.10;70.40
19060;DHT22;9663;48.996;8.334;2023-02-20T04:23:12;9.20;70.50
19060;DHT22;9663;48.996;8.334;2023-02-20T04:25:47;9.50;69.20
19060;DHT22;9663;48.996;8.334;2023-02-20T04:28:18;9.20;69.00
19060;DHT22;9663;48.996;8.334;2023-02-20T04:30:44;8.70;70.20
19060;DHT22;9663;48.996;8.334;2023-02-20T04:33:12;9.00;71.30
19060;DHT22;9663;48.996;8.334;2023-02-20T04:35:39;9.30;71.50
19060;DHT22;9663;48.996;8.334;2023-02-20T04:38:05;9.10;71.50
19060;DHT22;9663;48.996;8.334;2023-02-20T04:40:31;8.90;71.30
19060;DHT22;9663;48.996;8.334;2023-02-20T04:42:57;9.00;71.50
19060;DHT22;9663;48.996;8.334;2023-02-20T04:45:23;11.80;73.00
19060;DHT22;9663;48.996;8.334;2023-02-20T04:47:49;9.50;71.70
19060;DHT22;9663;48.996;8.334;2023-02-20T04:52:53;9.00;69.90
19060;DHT22;9663;48.996;8.334;2023-02-20T04:55:19;9.10;71.50
19060;DHT22;9663;48.996;8.334;2023-02-20T04:57:48;8.90;71.20
19060;DHT22;9663;48.996;8.334;2023-02-20T05:00:17;9.20;70.00
19060;DHT22;9663;48.996;8.334;2023-02-20T05:02:43;8.70;71.30
19060;DHT22;9663;48.996;8.334;2023-02-20T05:05:16;10.40;72.40
19060;DHT22;9663;48.996;8.334;2023-02-20T05:07:42;8.70;71.40
19060;DHT22;9663;48.996;8.334;2023-02-20T05:10:15;8.80;71.30
19060;DHT22;9663;48.996;8.334;2023-02-20T05:12:42;10.70;70.90
19060;DHT22;9663;48.996;8.334;2023-02-20T05:15:08;10.20;72.30
19060;DHT22;9663;48.996;8.334;2023-02-20T05:17:34;9.00;71.70
19060;DHT22;9663;48.996;8.334;2023-02-20T05:20:01;8.60;71.50
19060;DHT22;9663;48.996;8.334;2023-02-20T05:22:27;8.70;71.60
19060;DHT22;9663;48.996;8.334;2023-02-20T05:24:53;8.60;71.50
19060;DHT22;9663;48.996;8.334;2023-02-20T05:27:20;8.60;71.50
19060;DHT22;9663;48.996;8.334;2023-02-20T05:29:55;8.70;71.50
19060;DHT22;9663;48.996;8.334;2023-02-20T05:32:23;8.80;70.00
19060;DHT22;9663;48.996;8.334;2023-02-20T05:34:51;8.90;71.40
19060;DHT22;9663;48.996;8.334;2023-02-20T05:37:18;10.00;72.30
19060;DHT22;9663;48.996;8.334;2023-02-20T05:39:45;8.90;71.90
19060;DHT22;9663;48.996;8.334;2023-02-20T05:42:12;9.10;71.80
19060;DHT22;9663;48.996;8.334;2023-02-20T05:44:38;8.80;71.80
19060;DHT22;9663;48.996;8.334;2023-02-20T05:47:04;8.70;72.00
19060;DHT22;9663;48.996;8.334;2023-02-20T05:49:32;8.70;71.70
19060;DHT22;9663;48.996;8.334;2023-02-20T05:52:00;8.60;71.90
19060;DHT22;9663;48.996;8.334;2023-02-20T05:54:27;9.30;72.20
19060;DHT22;9663;48.996;8.334;2023-02-20T05:56:54;8.60;71.60
19060;DHT22;9663;48.996;8.334;2023-02-20T05:59:22;8.90;72.00
19060;DHT22;9663;48.996;8.334;2023-02-20T06:01:49;8.30;71.90
19060;DHT22;9663;48.996;8.334;2023-02-20T06:04:20;8.70;72.20
19060;DHT22;9663;48.996;8.334;2023-02-20T06:06:45;8.60;72.20
19060;DHT22;9663;48.996;8.334;2023-02-20T06:09:12;8.60;72.20
19060;DHT22;9663;48.996;8.334;2023-02-20T06:11:46;8.90;72.50
19060;DHT22;9663;48.996;8.334;2023-02-20T06:14:15;8.80;72.30
19060;DHT22;9663;48.996;8.334;2023-02-20T06:16:43;8.50;72.00
19060;DHT22;9663;48.996;8.334;2023-02-20T06:19:10;9.10;73.30
19060;DHT22;9663;48.996;8.334;2023-02-20T06:21:36;8.50;72.10
19060;DHT22;9663;48.996;8.334;2023-02-20T06:24:05;8.40;72.00
19060;DHT22;9663;48.996;8.334;2023-02-20T06:26:31;9.00;72.30
19060;DHT22;9663;48.996;8.334;2023-02-20T06:28:56;10.50;73.10
19060;DHT22;9663;48.996;8.334;2023-02-20T06:31:25;8.50;72.10
19060;DHT22;9663;48.996;8.334;2023-02-20T06:33:53;8.80;72.20
19060;DHT22;9663;48.996;8.334;2023-02-20T06:36:26;8.70;72.40
19060;DHT22;9663;48.996;8.334;2023-02-20T06:38:53;8.90;71.10
19060;DHT22;9663;48.996;8.334;2023-02-20T06:41:19;8.20;71.70
19060;DHT22;9663;48.996;8.334;2023-02-20T06:43:45;8.70;72.30
19060;DHT22;9663;48.996;8.334;2023-02-20T06:46:11;8.80;72.20
19060;DHT22;9663;48.996;8.334;2023-02-20T06:48:48;8.50;72.50
19060;DHT22;9663;48.996;8.334;2023-02-20T06:51:16;9.50;73.20
19060;DHT22;9663;48.996;8.334;2023-02-20T06:53:44;8.50;72.40
19060;DHT22;9663;48.996;8.334;2023-02-20T06:56:10;8.90;72.60
19060;DHT22;9663;48.996;8.334;2023-02-20T06:58:40;10.20;73.60
19060;DHT22;9663;48.996;8.334;2023-02-20T07:01:07;8.80;72.60
19060;DHT22;9663;48.996;8.334;2023-02-20T07:03:32;8.50;72.70
19060;DHT22;9663;48.996;8.334;2023-02-20T07:05:58;8.70;72.80
19060;DHT22;9663;48.996;8.334;2023-02-20T07:08:24;8.70;72.80
19060;DHT22;9663;48.996;8.334;2023-02-20T07:10:49;10.00;73.50
19060;DHT22;9663;48.996;8.334;2023-02-20T07:13:15;9.00;72.90
19060;DHT22;9663;48.996;8.334;2023-02-20T07:15:41;8.20;72.10
19060;DHT22;9663;48.996;8.334;2023-02-20T07:18:06;8.60;73.30
19060;DHT22;9663;48.996;8.334;2023-02-20T07:20:32;8.40;72.40
19060;DHT22;9663;48.996;8.334;2023-02-20T07:22:58;8.30;72.40
19060;DHT22;9663;48.996;8.334;2023-02-20T07:25:23;8.90;72.70
19060;DHT22;9663;48.996;8.334;2023-02-20T07:27:49;8.70;72.30
19060;DHT22;9663;48.996;8.334;2023-02-20T07:30:15;8.90;72.50
19060;DHT22;9663;48.996;8.334;2023-02-20T07:32:40;8.90;72.30
19060;DHT22;9663;48.996;8.334;2023-02-20T07:35:06;8.90;72.30
19060;DHT22;9663;48.996;8.334;2023-02-20T07:37:32;9.10;71.90
19060;DHT22;9663;48.996;8.334;2023-02-20T07:39:58;9.10;72.40
19060;DHT22;9663;48.996;8.334;2023-02-20T07:42:23;9.30;72.30
19060;DHT22;9663;48.996;8.334;2023-02-20T07:44:49;9.30;72.10
19060;DHT22;9663;48.996;8.334;2023-02-20T07:47:14;9.60;72.30
19060;DHT22;9663;48.996;8.334;2023-02-20T07:49:40;9.70;72.30
19060;DHT22;9663;48.996;8.334;2023-02-20T07:52:06;9.50;71.90
19060;DHT22;9663;48.996;8.334;2023-02-20T07:54:32;10.70;72.70
19060;DHT22;9663;48.996;8.334;2023-02-20T07:56:57;9.40;71.80
19060;DHT22;9663;48.996;8.334;2023-02-20T07:59:23;9.50;71.70
19060;DHT22;9663;48.996;8.334;2023-02-20T08:01:49;9.70;71.60
19060;DHT22;9663;48.996;8.334;2023-02-20T08:04:15;9.90;71.80
19060;DHT22;9663;48.996;8.334;2023-02-20T08:06:41;11.00;72.40
19060;DHT22;9663;48.996;8.334;2023-02-20T08:09:07;9.90;71.70
19060;DHT22;9663;48.996;8.334;2023-02-20T08:11:34;10.60;71.80
19060;DHT22;9663;48.996;8.334;2023-02-20T08:14:02;10.70;71.70
19060;DHT22;9663;48.996;8.334;2023-02-20T08:16:29;9.90;71.10
19060;DHT22;9663;48.996;8.334;2023-02-20T08:18:55;10.40;71.30
19060;DHT22;9663;48.996;8.334;2023-02-20T08:21:21;10.40;71.20
19060;DHT22;9663;48.996;8.334;2023-02-20T08:23:47;10.50;71.10
19060;DHT22;9663;48.996;8.334;2023-02-20T08:26:12;10.80;70.90
19060;DHT22;9663;48.996;8.334;2023-02-20T08:28:38;11.40;71.20
19060;DHT22;9663;48.996;8.334;2023-02-20T08:31:04;11.30;70.60
19060;DHT22;9663;48.996;8.334;2023-02-20T08:33:30;11.50;70.60
19060;DHT22;9663;48.996;8.334;2023-02-20T08:35:56;11.40;70.20
19060;DHT22;9663;48.996;8.334;2023-02-20T08:38:32;11.20;70.00
19060;DHT22;9663;48.996;8.334;2023-02-20T08:41:02;11.90;68.60
19060;DHT22;9663;48.996;8.334;2023-02-20T08:43:32;11.60;69.90
19060;DHT22;9663;48.996;8.334;2023-02-20T08:45:59;12.70;70.40
19060;DHT22;9663;48.996;8.334;2023-02-20T08:48:25;12.60;70.20
19060;DHT22;9663;48.996;8.334;2023-02-20T08:50:51;12.60;69.40
19060;DHT22;9663;48.996;8.334;2023-02-20T08:53:18;12.30;69.40
19060;DHT22;9663;48.996;8.334;2023-02-20T08:55:43;11.40;68.90
19060;DHT22;9663;48.996;8.334;2023-02-20T08:58:10;12.20;69.00
19060;DHT22;9663;48.996;8.334;2023-02-20T09:00:36;12.10;69.00
19060;DHT22;9663;48.996;8.334;2023-02-20T09:03:01;12.60;69.10
19060;DHT22;9663;48.996;8.334;2023-02-20T09:05:34;12.70;68.90
19060;DHT22;9663;48.996;8.334;2023-02-20T09:08:01;12.60;67.10
19060;DHT22;9663;48.996;8.334;2023-02-20T09:10:27;12.40;68.20
19060;DHT22;9663;48.996;8.334;2023-02-20T09:12:53;13.70;68.30
19060;DHT22;9663;48.996;8.334;2023-02-20T09:15:19;13.20;67.90
19060;DHT22;9663;48.996;8.334;2023-02-20T09:17:48;13.60;67.90
19060;DHT22;9663;48.996;8.334;2023-02-20T09:20:16;12.90;66.90
19060;DHT22;9663;48.996;8.334;2023-02-20T09:22:46;13.10;67.00
19060;DHT22;9663;48.996;8.334;2023-02-20T09:25:14;12.70;66.80
19060;DHT22;9663;48.996;8.334;2023-02-20T09:27:40;12.90;67.00
19060;DHT22;9663;48.996;8.334;2023-02-20T09:30:06;13.00;67.20
19060;DHT22;9663;48.996;8.334;2023-02-20T09:32:33;13.60;67.10
19060;DHT22;9663;48.996;8.334;2023-02-20T09:34:58;13.20;67.10
19060;DHT22;9663;48.996;8.334;2023-02-20T09:37:24;13.40;67.00
19060;DHT22;9663;48.996;8.334;2023-02-20T09:39:50;13.70;67.00
19060;DHT22;9663;48.996;8.334;2023-02-20T09:53:24;14.20;64.20
19060;DHT22;9663;48.996;8.334;2023-02-20T09:55:56;14.50;65.90
19060;DHT22;9663;48.996;8.334;2023-02-20T10:01:21;14.20;63.40
19060;DHT22;9663;48.996;8.334;2023-02-20T10:03:55;14.40;64.80
19060;DHT22;9663;48.996;8.334;2023-02-20T10:06:27;14.60;64.90
19060;DHT22;9663;48.996;8.334;2023-02-20T10:08:58;14.30;64.40
19060;DHT22;9663;48.996;8.334;2023-02-20T10:14:23;14.40;63.50
19060;DHT22;9663;48.996;8.334;2023-02-20T10:17:08;15.10;64.90
19060;DHT22;9663;48.996;8.334;2023-02-20T10:19:52;14.50;64.60
19060;DHT22;9663;48.996;8.334;2023-02-20T10:25:10;14.80;62.90
19060;DHT22;9663;48.996;8.334;2023-02-20T10:27:59;14.80;62.10
19060;DHT22;9663;48.996;8.334;2023-02-20T10:30:37;16.70;63.80
19060;DHT22;9663;48.996;8.334;2023-02-20T10:35:49;15.00;63.20
19060;DHT22;9663;48.996;8.334;2023-02-20T10:38:22;14.90;61.90
19060;DHT22;9663;48.996;8.334;2023-02-20T10:41:20;15.70;64.10
19060;DHT22;9663;48.996;8.334;2023-02-20T10:44:14;14.70;63.00
19060;DHT22;9663;48.996;8.334;2023-02-20T10:46:54;15.10;61.70
19060;DHT22;9663;48.996;8.334;2023-02-20T10:52:51;15.00;61.60
19060;DHT22;9663;48.996;8.334;2023-02-20T10:55:41;15.50;63.60
19060;DHT22;9663;48.996;8.334;2023-02-20T10:58:21;15.40;62.00
19060;DHT22;9663;48.996;8.334;2023-02-20T11:00:53;16.10;63.40
19060;DHT22;9663;48.996;8.334;2023-02-20T11:06:19;15.70;61.40
19060;DHT22;9663;48.996;8.334;2023-02-20T11:08:46;16.00;62.50
19060;DHT22;9663;48.996;8.334;2023-02-20T11:11:37;16.20;63.00
19060;DHT22;9663;48.996;8.334;2023-02-20T11:17:08;17.00;61.00
19060;DHT22;9663;48.996;8.334;2023-02-20T11:19:47;16.00;61.50
19060;DHT22;9663;48.996;8.334;2023-02-20T11:22:17;16.00;60.10
19060;DHT22;9663;48.996;8.334;2023-02-20T11:27:41;16.40;60.00
19060;DHT22;9663;48.996;8.334;2023-02-20T11:33:17;16.50;60.20
19060;DHT22;9663;48.996;8.334;2023-02-20T11:35:51;16.00;59.40
19060;DHT22;9663;48.996;8.334;2023-02-20T11:38:27;16.60;61.20
19060;DHT22;9663;48.996;8.334;2023-02-20T11:43:30;17.30;60.20
19060;DHT22;9663;48.996;8.334;2023-02-20T11:46:07;18.00;59.90
19060;DHT22;9663;48.996;8.334;2023-02-20T11:48:35;18.50;58.60
19060;DHT22;9663;48.996;8.334;2023-02-20T11:51:01;19.10;58.80
19060;DHT22;9663;48.996;8.334;2023-02-20T11:53:29;19.50;58.70
19060;DHT22;9663;48.996;8.334;2023-02-20T11:56:10;19.80;57.90
19060;DHT22;9663;48.996;8.334;2023-02-20T11:58:38;21.00;56.80
19060;DHT22;9663;48.996;8.334;2023-02-20T12:01:06;21.20;56.80
19060;DHT22;9663;48.996;8.334;2023-02-20T12:03:56;21.50;56.30
19060;DHT22;9663;48.996;8.334;2023-02-20T12:08:59;22.20;54.60
19060;DHT22;9663;48.996;8.334;2023-02-20T12:11:29;22.50;55.00
19060;DHT22;9663;48.996;8.334;2023-02-20T12:13:57;22.50;54.00
19060;DHT22;9663;48.996;8.334;2023-02-20T12:19:17;22.70;52.80
19060;DHT22;9663;48.996;8.334;2023-02-20T12:30:43;23.60;51.60
19060;DHT22;9663;48.996;8.334;2023-02-20T12:42:02;24.10;50.80
19060;DHT22;9663;48.996;8.334;2023-02-20T12:44:58;24.10;50.00
19060;DHT22;9663;48.996;8.334;2023-02-20T12:47:37;24.10;49.90
19060;DHT22;9663;48.996;8.334;2023-02-20T12:55:57;25.00;49.90
19060;DHT22;9663;48.996;8.334;2023-02-20T13:01:37;25.20;48.20
19060;DHT22;9663;48.996;8.334;2023-02-20T13:04:13;25.00;49.00
19060;DHT22;9663;48.996;8.334;2023-02-20T13:09:39;24.50;46.60
19060;DHT22;9663;48.996;8.334;2023-02-20T13:12:17;23.90;47.00
19060;DHT22;9663;48.996;8.334;2023-02-20T13:20:24;21.50;48.90
19060;DHT22;9663;48.996;8.334;2023-02-20T13:23:48;21.10;49.50
19060;DHT22;9663;48.996;8.334;2023-02-20T13:25:50;20.50;49.40
19060;DHT22;9663;48.996;8.334;2023-02-20T13:34:24;19.20;50.50
19060;DHT22;9663;48.996;8.334;2023-02-20T13:52:36;18.20;52.70
19060;DHT22;9663;48.996;8.334;2023-02-20T14:02:53;18.00;53.20
19060;DHT22;9663;48.996;8.334;2023-02-20T14:05:29;18.40;53.90
19060;DHT22;9663;48.996;8.334;2023-02-20T14:07:57;17.70;53.90
19060;DHT22;9663;48.996;8.334;2023-02-20T14:10:33;17.50;53.80
19060;DHT22;9663;48.996;8.334;2023-02-20T14:13:03;18.50;53.80
19060;DHT22;9663;48.996;8.334;2023-02-20T14:15:51;17.90;53.80
19060;DHT22;9663;48.996;8.334;2023-02-20T14:18:24;17.90;53.10
19060;DHT22;9663;48.996;8.334;2023-02-20T14:23:50;18.20;53.90
19060;DHT22;9663;48.996;8.334;2023-02-20T14:26:26;17.90;54.10
19060;DHT22;9663;48.996;8.334;2023-02-20T14:28:57;18.20;53.40
19060;DHT22;9663;48.996;8.334;2023-02-20T14:31:33;18.20;54.20
19060;DHT22;9663;48.996;8.334;2023-02-20T14:34:10;18.60;53.90
19060;DHT22;9663;48.996;8.334;2023-02-20T14:37:20;18.30;54.00
19060;DHT22;9663;48.996;8.334;2023-02-20T14:40:07;18.20;53.10
19060;DHT22;9663;48.996;8.334;2023-02-20T14:42:43;17.40;52.90
19060;DHT22;9663;48.996;8.334;2023-02-20T14:45:21;19.20;54.50
19060;DHT22;9663;48.996;8.334;2023-02-20T14:47:56;18.00;53.50
19060;DHT22;9663;48.996;8.334;2023-02-20T14:50:25;17.80;53.50
19060;DHT22;9663;48.996;8.334;2023-02-20T14:53:13;18.30;54.40
19060;DHT22;9663;48.996;8.334;2023-02-20T14:55:48;18.00;53.10
19060;DHT22;9663;48.996;8.334;2023-02-20T14:58:17;18.10;54.10
19060;DHT22;9663;48.996;8.334;2023-02-20T15:00:46;18.10;54.10
19060;DHT22;9663;48.996;8.334;2023-02-20T15:03:23;18.20;54.20
19060;DHT22;9663;48.996;8.334;2023-02-20T15:05:52;19.80;54.90
19060;DHT22;9663;48.996;8.334;2023-02-20T15:08:22;19.00;55.30
19060;DHT22;9663;48.996;8.334;2023-02-20T15:10:49;19.80;55.20
19060;DHT22;9663;48.996;8.334;2023-02-20T15:13:23;19.00;54.70
19060;DHT22;9663;48.996;8.334;2023-02-20T15:16:11;19.40;54.00
19060;DHT22;9663;48.996;8.334;2023-02-20T15:18:44;19.70;53.50
19060;DHT22;9663;48.996;8.334;2023-02-20T15:21:14;19.70;53.10
19060;DHT22;9663;48.996;8.334;2023-02-20T15:23:53;20.70;53.30
19060;DHT22;9663;48.996;8.334;2023-02-20T15:26:34;21.80;53.80
19060;DHT22;9663;48.996;8.334;2023-02-20T15:29:22;21.30;51.50
19060;DHT22;9663;48.996;8.334;2023-02-20T15:32:01;21.70;51.00
19060;DHT22;9663;48.996;8.334;2023-02-20T15:34:34;22.10;50.70
19060;DHT22;9663;48.996;8.334;2023-02-20T15:37:26;22.30;50.80
19060;DHT22;9663;48.996;8.334;2023-02-20T15:39:54;22.40;49.50
19060;DHT22;9663;48.996;8.334;2023-02-20T15:42:22;22.80;50.40
19060;DHT22;9663;48.996;8.334;2023-02-20T15:44:49;22.60;49.30
19060;DHT22;9663;48.996;8.334;2023-02-20T15:47:17;23.00;49.20
19060;DHT22;9663;48.996;8.334;2023-02-20T15:49:43;22.10;49.20
19060;DHT22;9663;48.996;8.334;2023-02-20T15:52:16;21.90;49.50
19060;DHT22;9663;48.996;8.334;2023-02-20T15:54:51;22.30;49.10
19060;DHT22;9663;48.996;8.334;2023-02-20T15:57:18;21.80;48.60
19060;DHT22;9663;48.996;8.334;2023-02-20T15:59:45;22.70;49.40
19060;DHT22;9663;48.996;8.334;2023-02-20T16:02:19;21.60;49.20
19060;DHT22;9663;48.996;8.334;2023-02-20T16:04:48;21.20;48.90
19060;DHT22;9663;48.996;8.334;2023-02-20T16:07:17;21.50;49.80
19060;DHT22;9663;48.996;8.334;2023-02-20T16:09:44;21.90;50.20
19060;DHT22;9663;48.996;8.334;2023-02-20T16:12:24;20.40;49.70
19060;DHT22;9663;48.996;8.334;2023-02-20T16:14:53;20.50;49.20
19060;DHT22;9663;48.996;8.334;2023-02-20T16:17:27;20.10;50.00
19060;DHT22;9663;48.996;8.334;2023-02-20T16:19:55;20.70;50.00
19060;DHT22;9663;48.996;8.334;2023-02-20T16:22:21;20.80;50.80
19060;DHT22;9663;48.996;8.334;2023-02-20T16:24:46;19.30;50.30
19060;DHT22;9663;48.996;8.334;2023-02-20T16:27:24;19.00;50.30
19060;DHT22;9663;48.996;8.334;2023-02-20T16:29:52;19.10;49.70
19060;DHT22;9663;48.996;8.334;2023-02-20T16:32:20;19.10;50.30
19060;DHT22;9663;48.996;8.334;2023-02-20T16:34:47;19.40;50.50
19060;DHT22;9663;48.996;8.334;2023-02-20T16:37:14;19.50;50.30
19060;DHT22;9663;48.996;8.334;2023-02-20T16:39:40;18.50;50.30
19060;DHT22;9663;48.996;8.334;2023-02-20T16:44:42;18.30;49.70
19060;DHT22;9663;48.996;8.334;2023-02-20T16:47:12;18.10;50.50
19060;DHT22;9663;48.996;8.334;2023-02-20T16:49:40;17.80;50.50
19060;DHT22;9663;48.996;8.334;2023-02-20T16:52:24;17.70;51.00
19060;DHT22;9663;48.996;8.334;2023-02-20T16:54:52;17.50;50.30
19060;DHT22;9663;48.996;8.334;2023-02-20T16:57:20;16.90;51.40
19060;DHT22;9663;48.996;8.334;2023-02-20T16:59:48;18.00;52.20
19060;DHT22;9663;48.996;8.334;2023-02-20T17:02:18;18.50;52.70
19060;DHT22;9663;48.996;8.334;2023-02-20T17:04:47;16.70;52.00
19060;DHT22;9663;48.996;8.334;2023-02-20T17:07:13;16.30;52.10
19060;DHT22;9663;48.996;8.334;2023-02-20T17:09:40;18.00;54.00
19060;DHT22;9663;48.996;8.334;2023-02-20T17:12:06;17.50;53.20
19060;DHT22;9663;48.996;8.334;2023-02-20T17:14:32;16.10;52.50
19060;DHT22;9663;48.996;8.334;2023-02-20T17:16:57;16.20;52.70
19060;DHT22;9663;48.996;8.334;2023-02-20T17:19:23;16.40;52.90
19060;DHT22;9663;48.996;8.334;2023-02-20T17:21:50;16.20;53.10
19060;DHT22;9663;48.996;8.334;2023-02-20T17:24:16;17.20;53.90
19060;DHT22;9663;48.996;8.334;2023-02-20T17:26:44;15.50;53.30
19060;DHT22;9663;48.996;8.334;2023-02-20T17:29:11;15.70;53.40
19060;DHT22;9663;48.996;8.334;2023-02-20T17:31:37;15.70;53.50
19060;DHT22;9663;48.996;8.334;2023-02-20T17:34:04;15.40;53.80
19060;DHT22;9663;48.996;8.334;2023-02-20T17:36:31;15.60;53.90
19060;DHT22;9663;48.996;8.334;2023-02-20T17:38:57;15.50;54.00
19060;DHT22;9663;48.996;8.334;2023-02-20T17:41:23;14.90;53.80
19060;DHT22;9663;48.996;8.334;2023-02-20T17:43:49;15.00;53.90
19060;DHT22;9663;48.996;8.334;2023-02-20T17:46:19;14.90;54.10
19060;DHT22;9663;48.996;8.334;2023-02-20T17:48:45;14.50;53.90
19060;DHT22;9663;48.996;8.334;2023-02-20T17:51:18;15.10;54.30
19060;DHT22;9663;48.996;8.334;2023-02-20T17:53:45;16.40;54.90
19060;DHT22;9663;48.996;8.334;2023-02-20T17:56:13;15.10;54.60
19060;DHT22;9663;48.996;8.334;2023-02-20T17:58:41;14.40;54.40
19060;DHT22;9663;48.996;8.334;2023-02-20T18:01:07;14.60;54.80
19060;DHT22;9663;48.996;8.334;2023-02-20T18:03:33;14.60;55.10
19060;DHT22;9663;48.996;8.334;2023-02-20T18:05:59;14.20;54.90
19060;DHT22;9663;48.996;8.334;2023-02-20T18:08:25;14.40;55.00
19060;DHT22;9663;48.996;8.334;2023-02-20T18:10:50;14.50;55.20
19060;DHT22;9663;48.996;8.334;2023-02-20T18:13:16;14.50;55.40
19060;DHT22;9663;48.996;8.334;2023-02-20T18:15:42;14.10;55.40
19060;DHT22;9663;48.996;8.334;2023-02-20T18:18:08;14.20;55.30
19060;DHT22;9663;48.996;8.334;2023-02-20T18:20:34;15.90;56.30
19060;DHT22;9663;48.996;8.334;2023-02-20T18:23:00;14.70;55.80
19060;DHT22;9663;48.996;8.334;2023-02-20T18:25:26;15.60;56.30
19060;DHT22;9663;48.996;8.334;2023-02-20T18:27:52;14.00;55.50
19060;DHT22;9663;48.996;8.334;2023-02-20T18:30:18;14.00;55.60
19060;DHT22;9663;48.996;8.334;2023-02-20T18:32:44;14.40;55.80
19060;DHT22;9663;48.996;8.334;2023-02-20T18:35:10;14.60;56.20
19060;DHT22;9663;48.996;8.334;2023-02-20T18:37:36;14.90;56.40
19060;DHT22;9663;48.996;8.334;2023-02-20T18:40:03;13.90;56.00